Wolfheze, Netherlands
Current Conditions -  °F | °C
As of 9:55 AM on Wednesday 26 Nov 2014 (Local Time) from EHDL Reporting Station
Haze Haze  
Wind Chill: 31°   Ceiling: Unl
Heat Index: 37°   Visibility: 4mi
Dew Point: 36°   Wind: 9mph
Humidity: 93%   Direction: 90°E
Pressure: 30"   Gusts: NA
Location:  52°N, 5.79°E
Report Text: EHDL 260855Z AUTO 09008KT 6000 BR SCT100 03/02 Q1016 WHT
Loading
Personal Weather Stations






























Interactive Weather Map New forecast layout! Learn more

10-Day Weather Forecast

Advertisements
Track Severe Weather on mobile